createdAt,value
2022-10-05T00:00:21.543Z,8.13
2022-10-05T00:03:12.011Z,7.78
2022-10-05T00:05:39.585Z,7.60
2022-10-05T00:08:19.984Z,8.32
2022-10-05T00:10:47.927Z,7.97
2022-10-05T00:13:19.430Z,7.90
2022-10-05T00:15:47.234Z,8.60
2022-10-05T00:18:16.972Z,7.68
2022-10-05T00:20:45.039Z,7.45
2022-10-05T00:23:26.034Z,7.60
2022-10-05T00:25:53.205Z,8.15
2022-10-05T00:28:28.990Z,7.22
2022-10-05T00:30:58.310Z,8.52
2022-10-05T00:33:27.021Z,7.10
2022-10-05T00:35:55.160Z,7.13
2022-10-05T00:38:22.542Z,7.60
2022-10-05T00:41:07.081Z,7.38
2022-10-05T00:43:42.966Z,7.20
2022-10-05T00:46:12.867Z,7.35
2022-10-05T00:48:48.874Z,6.60
2022-10-05T00:51:19.675Z,7.00
2022-10-05T00:54:01.904Z,7.30
2022-10-05T00:56:56.354Z,6.75
2022-10-05T00:59:30.172Z,6.70
2022-10-05T01:02:26.791Z,7.30
2022-10-05T01:05:03.361Z,6.70
2022-10-05T01:08:02.005Z,6.47
2022-10-05T01:10:41.130Z,5.97
2022-10-05T01:13:20.150Z,6.72
2022-10-05T01:16:05.787Z,6.25
2022-10-05T01:19:10.172Z,6.32
2022-10-05T01:21:50.329Z,6.22
2022-10-05T01:24:34.236Z,6.57
2022-10-05T01:27:13.689Z,5.93
2022-10-05T01:29:53.945Z,6.00
2022-10-05T01:32:52.086Z,7.07
2022-10-05T01:35:25.252Z,7.05
2022-10-05T01:38:02.811Z,6.90
2022-10-05T01:40:34.932Z,6.50
2022-10-05T01:43:15.317Z,6.32
2022-10-05T01:46:03.275Z,6.20
2022-10-05T01:48:42.293Z,6.80
2022-10-05T01:51:30.793Z,5.95
2022-10-05T01:54:01.253Z,7.40
2022-10-05T01:56:51.395Z,7.05
2022-10-05T01:59:53.683Z,6.53
2022-10-05T02:05:03.528Z,6.95
2022-10-05T02:07:39.484Z,6.47
2022-10-05T02:10:24.131Z,6.55
2022-10-05T02:12:58.805Z,6.88
2022-10-05T02:15:34.386Z,6.30
2022-10-05T02:18:11.457Z,6.85
2022-10-05T02:20:42.361Z,7.60
2022-10-05T02:23:18.017Z,6.75
2022-10-05T02:25:47.590Z,6.45
2022-10-05T02:28:30.799Z,7.10
2022-10-05T02:31:04.563Z,7.50
2022-10-05T02:33:33.717Z,7.57
2022-10-05T02:36:16.291Z,7.78
2022-10-05T02:38:51.546Z,7.85
2022-10-05T02:41:36.663Z,8.60
2022-10-05T02:44:15.814Z,8.63
2022-10-05T02:46:56.770Z,9.18
2022-10-05T02:49:47.776Z,7.70
2022-10-05T02:52:29.203Z,8.20
2022-10-05T02:55:15.243Z,7.50
2022-10-05T02:57:50.954Z,7.38
2022-10-05T03:00:24.137Z,7.90
2022-10-05T03:03:29.933Z,7.55
2022-10-05T03:06:09.091Z,7.60
2022-10-05T03:08:36.154Z,7.63
2022-10-05T03:11:39.161Z,8.55
2022-10-05T03:14:12.374Z,7.90
2022-10-05T03:17:00.559Z,7.78
2022-10-05T03:19:41.046Z,9.43
2022-10-05T03:22:31.695Z,7.88
2022-10-05T03:25:01.407Z,8.38
2022-10-05T03:27:44.733Z,8.07
2022-10-05T03:30:22.909Z,8.73
2022-10-05T03:33:22.811Z,8.13
2022-10-05T03:36:09.850Z,8.38
2022-10-05T03:38:42.651Z,8.75
2022-10-05T03:41:20.054Z,8.35
2022-10-05T03:43:52.728Z,9.07
2022-10-05T03:46:28.972Z,10.18
2022-10-05T03:49:15.890Z,8.38
2022-10-05T03:51:51.419Z,7.93
2022-10-05T03:54:47.277Z,8.07
2022-10-05T03:57:23.561Z,9.23
2022-10-05T04:00:03.374Z,8.15
2022-10-05T04:02:49.205Z,7.70
2022-10-05T04:05:21.816Z,8.43
2022-10-05T04:07:58.177Z,8.75
2022-10-05T04:10:27.307Z,8.35
2022-10-05T04:13:01.417Z,7.63
2022-10-05T04:15:40.304Z,8.48
2022-10-05T04:18:34.313Z,8.95
2022-10-05T04:21:11.516Z,8.82
2022-10-05T04:23:53.701Z,8.18
2022-10-05T04:26:29.582Z,8.20
2022-10-05T04:29:06.134Z,8.65
2022-10-05T04:32:20.722Z,9.00
2022-10-05T04:35:09.366Z,8.70
2022-10-05T04:38:04.238Z,8.88
2022-10-05T04:40:59.293Z,8.75
2022-10-05T04:43:44.712Z,9.82
2022-10-05T04:46:36.840Z,9.15
2022-10-05T04:49:52.063Z,8.10
2022-10-05T04:52:40.379Z,9.40
2022-10-05T04:55:29.365Z,9.02
2022-10-05T04:58:10.732Z,9.57
2022-10-05T05:03:27.093Z,8.57
2022-10-05T05:06:17.945Z,8.98
2022-10-05T05:09:08.202Z,9.40
2022-10-05T05:11:43.057Z,9.80
2022-10-05T05:14:39.960Z,9.80
2022-10-05T05:17:44.974Z,9.73
2022-10-05T05:20:15.209Z,9.82
2022-10-05T05:23:02.819Z,10.85
2022-10-05T05:25:46.660Z,9.23
2022-10-05T05:28:20.945Z,9.52
2022-10-05T05:31:24.205Z,9.05
2022-10-05T05:34:04.152Z,9.15
2022-10-05T05:36:44.319Z,9.52
2022-10-05T05:39:17.690Z,8.40
2022-10-05T05:42:23.901Z,9.68
2022-10-05T05:44:55.131Z,10.00
2022-10-05T05:50:07.585Z,8.88
2022-10-05T05:52:52.739Z,9.98
2022-10-05T05:55:29.774Z,9.60
2022-10-05T05:58:05.963Z,9.60
2022-10-05T06:00:40.390Z,11.75
2022-10-05T06:03:30.365Z,10.57
2022-10-05T06:06:01.871Z,8.70
2022-10-05T06:09:04.237Z,9.20
2022-10-05T06:11:58.307Z,9.38
2022-10-05T06:14:34.161Z,9.70
2022-10-05T06:17:07.494Z,10.90
2022-10-05T06:19:38.171Z,9.13
2022-10-05T06:22:15.066Z,9.98
2022-10-05T06:24:54.593Z,8.70
2022-10-05T06:28:03.566Z,8.45
2022-10-05T06:30:59.607Z,8.98
2022-10-05T06:33:45.353Z,8.35
2022-10-05T06:36:24.942Z,9.18
2022-10-05T06:39:29.420Z,9.32
2022-10-05T06:42:25.345Z,8.30
2022-10-05T06:45:36.494Z,7.93
2022-10-05T06:48:52.960Z,7.75
2022-10-05T06:52:13.340Z,8.50
2022-10-05T06:54:55.983Z,8.45
2022-10-05T06:58:00.136Z,8.38
2022-10-05T07:00:45.978Z,7.68
2022-10-05T07:03:35.135Z,7.13
2022-10-05T07:06:25.476Z,8.35
2022-10-05T07:09:26.321Z,8.43
2022-10-05T07:12:30.551Z,8.00
2022-10-05T07:15:23.764Z,8.63
2022-10-05T07:18:29.375Z,6.88
2022-10-05T07:21:39.649Z,7.32
2022-10-05T07:24:51.745Z,7.28
2022-10-05T07:27:25.373Z,7.22
2022-10-05T07:30:01.592Z,6.88
2022-10-05T07:32:55.787Z,7.05
2022-10-05T07:35:56.337Z,6.78
2022-10-05T07:38:33.043Z,8.00
2022-10-05T07:41:15.849Z,7.22
2022-10-05T07:44:02.411Z,7.30
2022-10-05T07:46:44.917Z,7.45
2022-10-05T07:49:47.756Z,6.65
2022-10-05T07:52:30.005Z,6.40
2022-10-05T07:55:22.949Z,6.40
2022-10-05T07:58:23.383Z,5.35
2022-10-05T08:00:58.379Z,5.43
2022-10-05T08:03:47.396Z,5.95
2022-10-05T08:06:39.789Z,6.00
2022-10-05T08:09:18.790Z,5.90
2022-10-05T08:12:09.530Z,5.10
2022-10-05T08:14:55.792Z,5.97
2022-10-05T08:17:44.206Z,5.85
2022-10-05T08:20:33.041Z,6.10
2022-10-05T08:23:16.060Z,6.22
2022-10-05T08:25:48.067Z,5.72
2022-10-05T08:28:25.645Z,6.20
2022-10-05T08:31:03.487Z,6.30
2022-10-05T08:34:07.695Z,5.55
2022-10-05T08:37:08.795Z,5.47
2022-10-05T08:40:14.502Z,5.32
2022-10-05T08:43:43.372Z,5.65
2022-10-05T08:46:27.212Z,5.45
2022-10-05T08:49:04.700Z,5.03
2022-10-05T08:51:44.534Z,6.45
2022-10-05T08:54:37.685Z,5.70
2022-10-05T08:57:38.693Z,4.95
2022-10-05T09:00:13.161Z,5.25
2022-10-05T09:02:58.419Z,5.18
2022-10-05T09:05:46.957Z,5.22
2022-10-05T09:08:23.001Z,5.35
2022-10-05T09:11:12.728Z,4.78
2022-10-05T09:13:51.165Z,5.68
2022-10-05T09:16:55.886Z,4.65
2022-10-05T09:19:28.871Z,4.82
2022-10-05T09:22:34.105Z,5.03
2022-10-05T09:25:19.014Z,4.65
2022-10-05T09:27:56.774Z,5.18
2022-10-05T09:30:51.105Z,4.88
2022-10-05T09:33:43.979Z,4.80
2022-10-05T09:36:35.721Z,5.15
2022-10-05T09:39:26.306Z,5.40
2022-10-05T09:42:16.395Z,4.25
2022-10-05T09:45:25.932Z,4.70
2022-10-05T09:47:52.813Z,4.45
2022-10-05T09:50:51.719Z,4.95
2022-10-05T09:53:41.023Z,4.72
2022-10-05T09:56:47.550Z,4.50
2022-10-05T09:59:49.063Z,4.18
2022-10-05T10:02:34.733Z,4.18
2022-10-05T10:05:27.059Z,4.30
2022-10-05T10:08:28.293Z,4.18
2022-10-05T10:11:24.271Z,4.33
2022-10-05T10:14:16.409Z,4.90
2022-10-05T10:17:19.069Z,4.78
2022-10-05T10:20:04.085Z,4.88
2022-10-05T10:23:10.018Z,4.53
2022-10-05T10:25:43.237Z,3.63
2022-10-05T10:28:29.015Z,4.22
2022-10-05T10:31:26.344Z,4.18
2022-10-05T10:34:05.506Z,3.92
2022-10-05T10:36:55.801Z,4.10
2022-10-05T10:39:45.237Z,4.07
2022-10-05T10:42:26.355Z,4.07
2022-10-05T10:45:04.912Z,4.00
2022-10-05T10:47:44.266Z,4.85
2022-10-05T10:50:26.319Z,4.60
2022-10-05T10:53:14.851Z,4.03
2022-10-05T10:56:00.296Z,3.67
2022-10-05T10:59:00.734Z,3.95
2022-10-05T11:01:49.867Z,4.10
2022-10-05T11:04:50.052Z,3.92
2022-10-05T11:07:22.936Z,4.03
2022-10-05T11:10:02.254Z,3.45
2022-10-05T11:12:35.310Z,3.30
2022-10-05T11:15:30.785Z,3.28
2022-10-05T11:18:22.660Z,3.67
2022-10-05T11:21:00.567Z,3.05
2022-10-05T11:23:48.524Z,3.78
2022-10-05T11:26:32.559Z,3.40
2022-10-05T11:29:20.899Z,3.15
2022-10-05T11:32:16.922Z,3.90
2022-10-05T11:34:46.927Z,4.38
2022-10-05T11:37:31.957Z,3.92
2022-10-05T11:40:11.278Z,3.30
2022-10-05T11:42:49.251Z,3.45
2022-10-05T11:45:22.069Z,2.90
2022-10-05T11:47:58.247Z,3.50
2022-10-05T11:50:33.949Z,2.72
2022-10-05T11:53:22.049Z,3.15
2022-10-05T11:56:23.713Z,3.25
2022-10-05T12:01:34.801Z,2.83
2022-10-05T12:04:28.305Z,3.10
2022-10-05T12:07:12.722Z,3.13
2022-10-05T12:10:17.600Z,2.95
2022-10-05T12:12:45.145Z,3.33
2022-10-05T12:15:17.582Z,3.17
2022-10-05T12:18:08.402Z,2.70
2022-10-05T12:20:35.457Z,3.08
2022-10-05T12:23:17.856Z,3.13
2022-10-05T12:25:58.310Z,3.58
2022-10-05T12:28:35.002Z,3.90
2022-10-05T12:31:17.497Z,3.70
2022-10-05T12:34:05.363Z,4.18
2022-10-05T12:37:04.701Z,3.90
2022-10-05T12:39:44.288Z,3.83
2022-10-05T12:42:18.099Z,3.83
2022-10-05T12:45:04.493Z,3.42
2022-10-05T12:48:00.927Z,4.55
2022-10-05T12:50:34.771Z,3.90
2022-10-05T12:53:14.573Z,3.72
2022-10-05T12:56:00.220Z,3.88
2022-10-05T12:58:34.417Z,4.13
2022-10-05T13:01:27.821Z,4.10
2022-10-05T13:04:38.460Z,4.25
2022-10-05T13:07:17.251Z,5.35
2022-10-05T13:09:44.262Z,4.30
2022-10-05T13:12:53.061Z,4.78
2022-10-05T13:15:28.899Z,4.15
2022-10-05T13:18:21.953Z,4.90
2022-10-05T13:21:04.598Z,4.13
2022-10-05T13:23:51.649Z,4.70
2022-10-05T13:26:27.088Z,4.13
2022-10-05T13:29:04.161Z,3.83
2022-10-05T13:31:40.932Z,3.72
2022-10-05T13:34:21.288Z,4.13
2022-10-05T13:37:23.959Z,4.88
2022-10-05T13:39:55.476Z,4.38
2022-10-05T13:42:32.844Z,4.47
2022-10-05T13:45:05.649Z,4.30
2022-10-05T13:47:55.286Z,4.05
2022-10-05T13:50:29.805Z,3.60
2022-10-05T13:53:31.771Z,4.28
2022-10-05T13:56:05.899Z,4.03
2022-10-05T13:58:46.142Z,5.03
2022-10-05T14:01:28.205Z,4.40
2022-10-05T14:04:05.212Z,5.10
2022-10-05T14:06:36.022Z,3.63
2022-10-05T14:09:03.668Z,4.93
2022-10-05T14:11:35.513Z,4.95
2022-10-05T14:14:46.513Z,4.35
2022-10-05T14:17:17.526Z,4.33
2022-10-05T14:19:48.060Z,5.90
2022-10-05T14:22:24.213Z,4.82
2022-10-05T14:25:13.718Z,4.35
2022-10-05T14:27:59.230Z,4.72
2022-10-05T14:30:32.112Z,4.65
2022-10-05T14:33:26.682Z,6.55
2022-10-05T14:35:56.850Z,4.95
2022-10-05T14:38:29.828Z,5.65
2022-10-05T14:41:12.418Z,5.07
2022-10-05T14:44:02.107Z,4.10
2022-10-05T14:46:34.252Z,6.07
2022-10-05T14:49:33.227Z,4.50
2022-10-05T14:52:00.236Z,4.60
2022-10-05T14:54:29.503Z,5.50
2022-10-05T14:57:29.268Z,4.72
2022-10-05T15:00:16.605Z,3.80
2022-10-05T15:03:07.953Z,4.38
2022-10-05T15:05:53.619Z,4.13
2022-10-05T15:08:41.489Z,4.55
2022-10-05T15:11:22.461Z,4.57
2022-10-05T15:13:50.221Z,5.03
2022-10-05T15:16:21.489Z,5.22
2022-10-05T15:18:57.131Z,4.15
2022-10-05T15:21:42.301Z,4.90
2022-10-05T15:24:20.404Z,5.18
2022-10-05T15:26:53.160Z,5.38
2022-10-05T15:29:49.801Z,6.05
2022-10-05T15:32:42.178Z,5.10
2022-10-05T15:35:37.078Z,5.50
2022-10-05T15:38:21.592Z,5.82
2022-10-05T15:41:02.420Z,5.15
2022-10-05T15:43:47.116Z,4.60
2022-10-05T15:46:25.530Z,4.57
2022-10-05T15:49:08.519Z,5.50
2022-10-05T15:51:50.869Z,4.32
2022-10-05T15:54:42.260Z,5.70
2022-10-05T15:57:40.328Z,4.93
2022-10-05T16:00:12.939Z,6.00
2022-10-05T16:02:58.516Z,5.40
2022-10-05T16:06:02.778Z,4.82
2022-10-05T16:08:51.045Z,4.90
2022-10-05T16:11:49.517Z,5.13
2022-10-05T16:14:28.105Z,4.55
2022-10-05T16:17:36.843Z,4.65
2022-10-05T16:20:18.584Z,5.10
2022-10-05T16:22:59.658Z,5.22
2022-10-05T16:25:50.870Z,4.70
2022-10-05T16:28:34.861Z,4.68
2022-10-05T16:31:18.256Z,5.35
2022-10-05T16:34:07.533Z,5.35
2022-10-05T16:37:02.756Z,4.72
2022-10-05T16:39:51.546Z,4.78
2022-10-05T16:42:34.855Z,5.38
2022-10-05T16:45:24.987Z,5.07
2022-10-05T16:47:57.422Z,5.75
2022-10-05T16:50:50.909Z,5.82
2022-10-05T16:53:27.747Z,6.13
2022-10-05T16:56:01.996Z,5.55
2022-10-05T16:58:39.530Z,5.75
2022-10-05T17:01:42.218Z,5.65
2022-10-05T17:04:12.256Z,6.20
2022-10-05T17:07:00.407Z,5.65
2022-10-05T17:09:59.853Z,5.85
2022-10-05T17:12:42.926Z,5.93
2022-10-05T17:15:31.782Z,6.05
2022-10-05T17:18:28.337Z,6.18
2022-10-05T17:21:16.427Z,6.88
2022-10-05T17:23:54.681Z,6.65
2022-10-05T17:26:21.633Z,6.65
2022-10-05T17:28:51.433Z,6.80
2022-10-05T17:31:22.630Z,7.28
2022-10-05T17:36:51.506Z,6.30
2022-10-05T17:39:40.555Z,6.57
2022-10-05T17:42:26.302Z,6.63
2022-10-05T17:45:14.643Z,6.43
2022-10-05T17:48:01.343Z,7.15
2022-10-05T17:51:07.608Z,6.13
2022-10-05T17:54:06.049Z,6.72
2022-10-05T17:56:56.039Z,6.38
2022-10-05T17:59:46.254Z,6.68
2022-10-05T18:02:13.591Z,6.70
2022-10-05T18:04:42.277Z,6.72
2022-10-05T18:07:20.618Z,6.22
2022-10-05T18:10:00.356Z,6.32
2022-10-05T18:12:40.457Z,6.50
2022-10-05T18:15:07.703Z,6.65
2022-10-05T18:17:57.467Z,6.70
2022-10-05T18:20:25.524Z,6.05
2022-10-05T18:23:09.654Z,6.97
2022-10-05T18:29:13.815Z,7.22
2022-10-05T18:31:56.538Z,6.82
2022-10-05T18:34:50.325Z,7.07
2022-10-05T18:37:29.664Z,6.38
2022-10-05T18:40:13.089Z,6.90
2022-10-05T18:43:02.442Z,6.80
2022-10-05T18:45:48.965Z,6.25
2022-10-05T18:48:42.800Z,6.20
2022-10-05T18:51:28.485Z,7.13
2022-10-05T18:54:09.549Z,5.82
2022-10-05T18:56:44.000Z,6.38
2022-10-05T18:59:32.210Z,6.45
2022-10-05T19:02:02.783Z,6.85
2022-10-05T19:04:47.928Z,7.05
2022-10-05T19:07:23.989Z,5.65
2022-10-05T19:10:02.859Z,6.00
2022-10-05T19:12:29.941Z,6.03
2022-10-05T19:15:17.826Z,6.30
2022-10-05T19:17:59.011Z,6.03
2022-10-05T19:20:48.951Z,6.30
2022-10-05T19:23:40.954Z,5.57
2022-10-05T19:29:02.203Z,5.97
2022-10-05T19:31:37.296Z,6.43
2022-10-05T19:34:19.247Z,4.93
2022-10-05T19:37:19.073Z,5.50
2022-10-05T19:39:49.294Z,6.22
2022-10-05T19:42:45.162Z,5.72
2022-10-05T19:45:29.439Z,5.80
2022-10-05T19:48:07.446Z,6.60
2022-10-05T19:51:01.066Z,5.50
2022-10-05T19:53:37.708Z,6.45
2022-10-05T19:56:26.474Z,6.28
2022-10-05T19:58:56.517Z,6.55
2022-10-05T20:01:26.989Z,7.47
2022-10-05T20:03:54.243Z,6.53
2022-10-05T20:06:24.378Z,6.50
2022-10-05T20:08:54.424Z,6.20
2022-10-05T20:11:22.985Z,6.43
2022-10-05T20:14:12.918Z,6.55
2022-10-05T20:17:48.229Z,6.32
2022-10-05T20:20:38.372Z,6.65
2022-10-05T20:23:25.420Z,6.22
2022-10-05T20:26:11.834Z,6.05
2022-10-05T20:28:38.906Z,6.00
2022-10-05T20:31:07.885Z,6.95
2022-10-05T20:33:35.189Z,6.32
2022-10-05T20:36:03.729Z,6.50
2022-10-05T20:38:33.691Z,7.20
2022-10-05T20:41:03.400Z,7.03
2022-10-05T20:43:30.366Z,6.72
2022-10-05T20:45:57.854Z,7.18
2022-10-05T20:48:42.557Z,6.97
2022-10-05T20:51:09.601Z,6.95
2022-10-05T20:53:50.127Z,6.88
2022-10-05T20:56:17.220Z,6.82
2022-10-05T20:58:44.294Z,6.28
2022-10-05T21:01:19.629Z,7.10
2022-10-05T21:03:47.517Z,6.78
2022-10-05T21:06:14.648Z,7.65
2022-10-05T21:08:41.514Z,7.38
2022-10-05T21:11:11.187Z,7.10
2022-10-05T21:13:42.485Z,7.00
2022-10-05T21:16:13.013Z,7.10
2022-10-05T21:18:40.651Z,7.70
2022-10-05T21:21:08.115Z,7.05
2022-10-05T21:23:35.106Z,7.55
2022-10-05T21:26:02.629Z,6.38
2022-10-05T21:28:30.239Z,7.07
2022-10-05T21:30:57.526Z,7.43
2022-10-05T21:33:24.718Z,7.05
2022-10-05T21:35:52.201Z,6.72
2022-10-05T21:38:19.103Z,6.78
2022-10-05T21:40:46.351Z,6.60
2022-10-05T21:43:14.313Z,7.22
2022-10-05T21:45:42.626Z,7.65
2022-10-05T21:48:10.831Z,6.40
2022-10-05T21:50:38.730Z,6.43
2022-10-05T21:53:09.702Z,6.88
2022-10-05T21:55:40.516Z,6.53
2022-10-05T21:58:08.609Z,6.88
2022-10-05T22:00:35.667Z,7.03
2022-10-05T22:03:02.677Z,7.40
2022-10-05T22:05:29.772Z,6.78
2022-10-05T22:07:56.676Z,6.85
2022-10-05T22:10:23.892Z,7.00
2022-10-05T22:12:51.436Z,7.28
2022-10-05T22:15:18.417Z,7.10
2022-10-05T22:17:46.162Z,6.70
2022-10-05T22:20:14.529Z,6.97
2022-10-05T22:22:41.483Z,7.15
2022-10-05T22:25:08.514Z,6.68
2022-10-05T22:27:35.873Z,6.40
2022-10-05T22:30:03.754Z,6.18
2022-10-05T22:32:31.081Z,7.10
2022-10-05T22:34:58.371Z,6.70
2022-10-05T22:37:25.359Z,7.53
2022-10-05T22:39:52.323Z,7.25
2022-10-05T22:42:19.450Z,7.53
2022-10-05T22:44:46.320Z,7.10
2022-10-05T22:47:13.261Z,6.50
2022-10-05T22:49:40.369Z,6.75
2022-10-05T22:52:07.344Z,7.07
2022-10-05T22:54:37.222Z,7.18
2022-10-05T22:57:04.597Z,6.80
2022-10-05T22:59:31.713Z,6.78
2022-10-05T23:01:58.934Z,6.55
2022-10-05T23:04:26.171Z,6.95
2022-10-05T23:06:53.167Z,6.40
2022-10-05T23:09:20.009Z,6.90
2022-10-05T23:11:51.973Z,7.03
2022-10-05T23:14:19.526Z,6.55
2022-10-05T23:16:47.664Z,6.10
2022-10-05T23:19:15.066Z,6.88
2022-10-05T23:21:42.421Z,6.70
2022-10-05T23:24:09.700Z,7.47
2022-10-05T23:26:37.366Z,6.68
2022-10-05T23:29:04.253Z,6.53
2022-10-05T23:31:33.531Z,7.18
2022-10-05T23:34:00.725Z,6.97
2022-10-05T23:36:32.829Z,6.68
2022-10-05T23:39:00.275Z,6.40
2022-10-05T23:41:27.639Z,6.63
2022-10-05T23:43:57.134Z,6.70
2022-10-05T23:46:24.288Z,7.00
2022-10-05T23:48:53.220Z,6.95
2022-10-05T23:51:20.443Z,7.22
2022-10-05T23:53:47.673Z,7.32
2022-10-05T23:56:14.842Z,7.05
2022-10-05T23:58:41.988Z,7.10
